createdAt,value
2019-05-07T00:01:23.263Z,27.41
2019-05-07T00:03:54.681Z,27.44
2019-05-07T00:06:25.914Z,27.41
2019-05-07T00:08:57.556Z,27.30
2019-05-07T00:11:28.888Z,27.21
2019-05-07T00:14:00.134Z,27.18
2019-05-07T00:16:32.520Z,27.17
2019-05-07T00:19:03.656Z,27.14
2019-05-07T00:21:35.010Z,27.12
2019-05-07T00:24:06.942Z,27.09
2019-05-07T00:26:39.606Z,27.09
2019-05-07T00:29:12.986Z,27.13
2019-05-07T00:31:44.213Z,27.13
2019-05-07T00:34:17.253Z,27.11
2019-05-07T00:37:08.421Z,27.08
2019-05-07T00:39:42.421Z,27.09
2019-05-07T00:42:22.077Z,27.09
2019-05-07T00:45:16.859Z,27.02
2019-05-07T00:47:36.685Z,26.85
2019-05-07T00:50:09.654Z,26.69
2019-05-07T00:52:42.963Z,26.60
2019-05-07T00:55:14.098Z,26.63
2019-05-07T00:57:45.557Z,26.67
2019-05-07T01:00:16.700Z,26.73
2019-05-07T01:02:47.801Z,26.78
2019-05-07T01:05:19.316Z,26.83
2019-05-07T01:07:52.769Z,26.86
2019-05-07T01:10:23.851Z,26.87
2019-05-07T01:12:55.328Z,26.87
2019-05-07T01:15:31.005Z,26.88
2019-05-07T01:17:59.961Z,26.90
2019-05-07T01:20:32.950Z,26.91
2019-05-07T01:23:03.994Z,26.91
2019-05-07T01:25:35.443Z,26.85
2019-05-07T01:28:06.683Z,26.84
2019-05-07T01:30:38.349Z,26.76
2019-05-07T01:33:12.240Z,26.80
2019-05-07T01:35:45.085Z,26.79
2019-05-07T01:38:17.832Z,26.81
2019-05-07T01:40:49.293Z,26.79
2019-05-07T01:43:22.654Z,26.80
2019-05-07T01:45:53.737Z,26.86
2019-05-07T01:48:24.636Z,26.89
2019-05-07T01:50:56.045Z,26.87
2019-05-07T01:53:27.379Z,26.86
2019-05-07T01:55:58.795Z,26.89
2019-05-07T01:58:30.195Z,26.87
2019-05-07T02:01:02.825Z,26.84
2019-05-07T02:03:52.838Z,26.78
2019-05-07T02:06:25.726Z,26.70
2019-05-07T02:09:10.229Z,26.58
2019-05-07T02:11:46.486Z,26.51
2019-05-07T02:14:18.140Z,26.53
2019-05-07T02:16:49.491Z,26.58
2019-05-07T02:19:22.021Z,26.65
2019-05-07T02:21:53.326Z,26.74
2019-05-07T02:24:24.576Z,26.82
2019-05-07T02:26:55.924Z,26.79
2019-05-07T02:29:27.388Z,26.82
2019-05-07T02:31:58.802Z,26.83
2019-05-07T02:34:30.219Z,26.79
2019-05-07T02:37:04.466Z,26.79
2019-05-07T02:39:37.304Z,26.79
2019-05-07T02:42:09.482Z,26.82
2019-05-07T02:44:58.445Z,26.81
2019-05-07T02:47:33.094Z,26.71
2019-05-07T02:50:09.477Z,26.65
2019-05-07T02:52:53.762Z,26.66
2019-05-07T02:55:28.273Z,26.63
2019-05-07T02:58:03.237Z,26.75
2019-05-07T03:00:33.347Z,26.83
2019-05-07T03:03:04.825Z,26.95
2019-05-07T03:05:36.185Z,27.01
2019-05-07T03:08:07.570Z,27.09
2019-05-07T03:10:38.797Z,27.18
2019-05-07T03:13:13.440Z,27.20
2019-05-07T03:15:43.746Z,27.25
2019-05-07T03:18:18.812Z,27.32
2019-05-07T03:20:49.529Z,27.35
2019-05-07T03:23:22.963Z,27.43
2019-05-07T03:25:55.704Z,27.48
2019-05-07T03:28:27.270Z,27.53
2019-05-07T03:31:05.751Z,27.59
2019-05-07T03:33:37.332Z,27.64
2019-05-07T03:36:09.532Z,27.68
2019-05-07T03:38:43.732Z,27.72
2019-05-07T03:41:13.954Z,27.79
2019-05-07T03:43:45.309Z,27.84
2019-05-07T03:46:18.249Z,27.92
2019-05-07T03:48:49.523Z,28.03
2019-05-07T03:51:23.538Z,28.06
2019-05-07T03:53:54.350Z,28.12
2019-05-07T03:56:25.445Z,28.09
2019-05-07T03:58:57.045Z,28.19
2019-05-07T04:01:28.481Z,28.37
2019-05-07T04:03:59.791Z,28.48
2019-05-07T04:06:33.215Z,28.54
2019-05-07T04:09:05.476Z,28.62
2019-05-07T04:11:36.531Z,28.74
2019-05-07T04:14:09.314Z,28.81
2019-05-07T04:16:40.359Z,28.86
2019-05-07T04:19:13.246Z,28.94
2019-05-07T04:21:44.600Z,29.05
2019-05-07T04:24:17.597Z,29.08
2019-05-07T04:26:53.503Z,29.09
2019-05-07T04:29:23.470Z,29.13
2019-05-07T04:31:54.621Z,29.20
2019-05-07T04:34:45.777Z,29.23
2019-05-07T04:37:17.085Z,29.37
2019-05-07T04:39:54.302Z,29.45
2019-05-07T04:42:25.664Z,29.52
2019-05-07T04:44:57.152Z,29.53
2019-05-07T04:47:38.453Z,29.60
2019-05-07T04:50:03.833Z,29.62
2019-05-07T04:52:39.023Z,29.67
2019-05-07T04:55:13.580Z,29.72
2019-05-07T04:57:43.843Z,29.76
2019-05-07T05:00:16.485Z,29.81
2019-05-07T05:02:55.193Z,29.87
2019-05-07T05:05:26.645Z,29.93
2019-05-07T05:07:57.995Z,30.05
2019-05-07T05:10:29.242Z,30.10
2019-05-07T05:13:02.933Z,30.16
2019-05-07T05:15:33.272Z,30.25
2019-05-07T05:18:04.318Z,30.36
2019-05-07T05:20:37.368Z,30.54
2019-05-07T05:23:13.164Z,30.68
2019-05-07T05:25:45.032Z,30.82
2019-05-07T05:28:16.280Z,30.91
2019-05-07T05:30:49.939Z,30.94
2019-05-07T05:33:23.407Z,31.04
2019-05-07T05:35:54.225Z,30.91
2019-05-07T05:38:25.370Z,30.79
2019-05-07T05:40:56.926Z,30.67
2019-05-07T05:43:31.930Z,30.65
2019-05-07T05:46:12.066Z,30.58
2019-05-07T05:48:43.594Z,30.52
2019-05-07T05:51:33.061Z,30.62
2019-05-07T05:54:15.261Z,30.67
2019-05-07T05:56:52.007Z,30.64
2019-05-07T05:59:32.490Z,30.79
2019-05-07T06:02:14.501Z,30.87
2019-05-07T06:04:56.216Z,31.01
2019-05-07T06:07:42.737Z,30.74
2019-05-07T06:10:15.715Z,30.69
2019-05-07T06:12:52.360Z,30.66
2019-05-07T06:15:25.384Z,30.74
2019-05-07T06:17:58.401Z,30.79
2019-05-07T06:20:32.073Z,30.88
2019-05-07T06:23:12.878Z,30.91
2019-05-07T06:25:45.029Z,31.02
2019-05-07T06:28:16.175Z,31.12
2019-05-07T06:30:47.216Z,31.19
2019-05-07T06:33:18.670Z,31.13
2019-05-07T06:35:51.909Z,31.21
2019-05-07T06:38:24.005Z,31.14
2019-05-07T06:40:59.996Z,31.16
2019-05-07T06:43:32.947Z,31.13
2019-05-07T06:46:05.672Z,31.18
2019-05-07T06:48:42.313Z,31.10
2019-05-07T06:51:09.989Z,31.03
2019-05-07T06:53:42.256Z,31.36
2019-05-07T06:56:13.538Z,31.41
2019-05-07T06:58:49.085Z,31.32
2019-05-07T07:01:24.714Z,31.37
2019-05-07T07:04:10.032Z,31.20
2019-05-07T07:06:49.052Z,31.44
2019-05-07T07:09:27.506Z,31.76
2019-05-07T07:12:02.020Z,31.68
2019-05-07T07:14:34.160Z,31.86
2019-05-07T07:17:05.417Z,32.17
2019-05-07T07:19:36.771Z,32.33
2019-05-07T07:22:08.260Z,32.57
2019-05-07T07:24:39.654Z,32.71
2019-05-07T07:27:13.164Z,32.93
2019-05-07T07:30:03.681Z,32.95
2019-05-07T07:32:36.771Z,33.16
2019-05-07T07:35:09.972Z,33.31
2019-05-07T07:37:43.023Z,33.44
2019-05-07T07:40:22.526Z,33.63
2019-05-07T07:42:54.590Z,33.93
2019-05-07T07:45:25.826Z,34.18
2019-05-07T07:47:57.276Z,34.40
2019-05-07T07:50:28.815Z,34.79
2019-05-07T07:53:02.330Z,34.74
2019-05-07T07:55:34.548Z,34.80
2019-05-07T07:58:07.599Z,34.83
2019-05-07T08:00:49.501Z,34.66
2019-05-07T08:03:22.600Z,34.72
2019-05-07T08:05:53.760Z,34.85
2019-05-07T08:08:25.201Z,34.89
2019-05-07T08:10:56.352Z,34.93
2019-05-07T08:13:27.704Z,34.73
2019-05-07T08:15:59.154Z,34.80
2019-05-07T08:18:32.609Z,34.92
2019-05-07T08:21:03.493Z,35.03
2019-05-07T08:23:35.055Z,35.21
2019-05-07T08:26:06.096Z,35.39
2019-05-07T08:28:37.023Z,35.52
2019-05-07T08:31:18.828Z,35.82
2019-05-07T08:34:03.707Z,35.88
2019-05-07T08:36:35.774Z,35.99
2019-05-07T08:39:08.665Z,35.97
2019-05-07T08:41:39.638Z,36.15
2019-05-07T08:44:15.765Z,36.43
2019-05-07T08:46:49.183Z,36.46
2019-05-07T08:49:33.463Z,36.44
2019-05-07T08:52:03.775Z,36.43
2019-05-07T08:54:35.217Z,36.46
2019-05-07T08:57:06.253Z,36.60
2019-05-07T08:59:37.704Z,36.69
2019-05-07T09:02:08.923Z,36.68
2019-05-07T09:04:41.740Z,36.83
2019-05-07T09:07:13.261Z,36.67
2019-05-07T09:09:44.654Z,36.75
2019-05-07T09:12:15.692Z,36.68
2019-05-07T09:14:46.691Z,36.92
2019-05-07T09:17:18.193Z,37.18
2019-05-07T09:19:52.183Z,37.28
2019-05-07T09:22:23.140Z,37.08
2019-05-07T09:24:54.302Z,37.37
2019-05-07T09:27:27.277Z,37.71
2019-05-07T09:30:03.061Z,38.01
2019-05-07T09:32:37.473Z,38.28
2019-05-07T09:35:12.388Z,38.29
2019-05-07T09:37:43.585Z,38.18
2019-05-07T09:40:14.909Z,38.33
2019-05-07T09:42:46.164Z,38.69
2019-05-07T09:45:17.606Z,38.90
2019-05-07T09:47:48.972Z,39.18
2019-05-07T09:50:21.887Z,39.35
2019-05-07T09:52:53.199Z,39.44
2019-05-07T09:55:24.462Z,39.60
2019-05-07T09:57:55.600Z,39.53
2019-05-07T10:00:27.058Z,39.47
2019-05-07T10:02:58.425Z,38.93
2019-05-07T10:05:31.953Z,38.67
2019-05-07T10:08:02.591Z,38.93
2019-05-07T10:10:33.700Z,39.60
2019-05-07T10:13:12.085Z,39.66
2019-05-07T10:15:42.866Z,39.89
2019-05-07T10:18:15.844Z,39.98
2019-05-07T10:20:47.194Z,39.69
2019-05-07T10:23:22.991Z,39.81
2019-05-07T10:25:53.999Z,39.96
2019-05-07T10:28:25.046Z,40.28
2019-05-07T10:30:56.603Z,40.42
2019-05-07T10:33:27.849Z,40.51
2019-05-07T10:36:01.937Z,40.37
2019-05-07T10:38:33.420Z,40.54
2019-05-07T10:41:04.772Z,40.72
2019-05-07T10:43:36.138Z,40.60
2019-05-07T10:46:24.079Z,40.32
2019-05-07T10:49:09.659Z,40.17
2019-05-07T10:51:42.539Z,40.03
2019-05-07T10:54:13.791Z,40.34
2019-05-07T10:56:45.146Z,40.96
2019-05-07T10:59:16.496Z,41.47
2019-05-07T11:01:51.875Z,41.29
2019-05-07T11:04:22.482Z,40.94
2019-05-07T11:06:53.831Z,40.50
2019-05-07T11:09:25.284Z,40.27
2019-05-07T11:11:56.737Z,40.04
2019-05-07T11:14:27.981Z,39.53
2019-05-07T11:17:02.618Z,39.28
2019-05-07T11:19:33.290Z,39.27
2019-05-07T11:22:04.295Z,39.05
2019-05-07T11:24:35.758Z,38.89
2019-05-07T11:27:06.992Z,38.78
2019-05-07T11:29:38.350Z,38.85
2019-05-07T11:32:09.803Z,39.07
2019-05-07T11:34:42.888Z,39.28
2019-05-07T11:37:14.264Z,39.25
2019-05-07T11:39:45.795Z,39.04
2019-05-07T11:42:22.009Z,38.71
2019-05-07T11:44:54.983Z,38.54
2019-05-07T11:47:31.909Z,38.25
2019-05-07T11:50:22.622Z,38.07
2019-05-07T11:53:01.575Z,37.92
2019-05-07T11:55:33.030Z,37.61
2019-05-07T11:58:05.339Z,37.61
2019-05-07T12:00:53.856Z,37.22
2019-05-07T12:03:25.349Z,37.11
2019-05-07T12:05:56.729Z,36.93
2019-05-07T12:08:39.331Z,36.57
2019-05-07T12:11:02.345Z,36.44
2019-05-07T12:13:33.686Z,36.26
2019-05-07T12:16:04.835Z,36.12
2019-05-07T12:18:36.168Z,36.03
2019-05-07T12:21:20.015Z,35.87
2019-05-07T12:23:42.165Z,35.77
2019-05-07T12:26:13.398Z,35.79
2019-05-07T12:28:45.070Z,35.83
2019-05-07T12:31:35.014Z,35.94
2019-05-07T12:34:08.641Z,36.08
2019-05-07T12:36:40.077Z,36.18
2019-05-07T12:39:12.813Z,36.16
2019-05-07T12:41:44.349Z,35.89
2019-05-07T12:44:15.885Z,35.79
2019-05-07T12:46:48.049Z,35.83
2019-05-07T12:49:19.198Z,35.88
2019-05-07T12:51:55.558Z,35.79
2019-05-07T12:54:28.567Z,36.53
2019-05-07T12:57:00.101Z,37.51
2019-05-07T12:59:32.218Z,38.09
2019-05-07T13:02:21.404Z,38.83
2019-05-07T13:04:41.757Z,39.14
2019-05-07T13:07:14.519Z,39.80
2019-05-07T13:09:46.067Z,40.33
2019-05-07T13:12:17.210Z,40.69
2019-05-07T13:14:48.325Z,41.27
2019-05-07T13:17:19.709Z,40.98
2019-05-07T13:19:52.443Z,40.51
2019-05-07T13:22:24.248Z,39.79
2019-05-07T13:24:55.770Z,39.66
2019-05-07T13:27:28.306Z,39.21
2019-05-07T13:30:02.373Z,38.95
2019-05-07T13:32:32.968Z,38.74
2019-05-07T13:35:06.059Z,38.46
2019-05-07T13:37:41.895Z,38.36
2019-05-07T13:40:34.229Z,38.51
2019-05-07T13:43:15.950Z,38.52
2019-05-07T13:45:49.124Z,38.17
2019-05-07T13:48:25.138Z,37.82
2019-05-07T13:50:58.176Z,37.38
2019-05-07T13:53:32.311Z,36.92
2019-05-07T13:56:03.791Z,36.55
2019-05-07T13:58:36.603Z,35.93
2019-05-07T14:01:12.317Z,35.52
2019-05-07T14:03:43.676Z,35.33
2019-05-07T14:06:16.761Z,35.16
2019-05-07T14:08:48.137Z,35.28
2019-05-07T14:11:22.407Z,35.41
2019-05-07T14:13:53.687Z,35.40
2019-05-07T14:16:25.021Z,35.52
2019-05-07T14:18:56.714Z,35.40
2019-05-07T14:21:28.865Z,34.91
2019-05-07T14:24:01.450Z,34.72
2019-05-07T14:26:32.814Z,34.27
2019-05-07T14:29:04.758Z,34.04
2019-05-07T14:31:36.032Z,33.66
2019-05-07T14:34:26.108Z,33.50
2019-05-07T14:37:01.965Z,32.32
2019-05-07T14:39:33.307Z,32.08
2019-05-07T14:42:06.010Z,31.97
2019-05-07T14:44:48.821Z,32.18
2019-05-07T14:47:22.240Z,32.32
2019-05-07T14:49:54.018Z,32.18
2019-05-07T14:52:32.187Z,32.07
2019-05-07T14:54:58.424Z,31.57
2019-05-07T14:57:29.758Z,31.17
2019-05-07T15:00:03.093Z,31.44
2019-05-07T15:02:33.942Z,31.03
2019-05-07T15:05:08.216Z,31.14
2019-05-07T15:07:39.240Z,31.13
2019-05-07T15:10:11.225Z,31.04
2019-05-07T15:12:42.711Z,31.47
2019-05-07T15:15:13.801Z,31.51
2019-05-07T15:17:49.255Z,31.33
2019-05-07T15:20:22.408Z,30.79
2019-05-07T15:22:55.203Z,31.17
2019-05-07T15:25:26.578Z,30.12
2019-05-07T15:27:57.979Z,29.52
2019-05-07T15:30:32.486Z,29.32
2019-05-07T15:33:03.684Z,28.99
2019-05-07T15:35:34.996Z,28.91
2019-05-07T15:38:06.425Z,28.76
2019-05-07T15:40:37.853Z,28.83
2019-05-07T15:43:09.068Z,28.49
2019-05-07T15:45:40.065Z,28.40
2019-05-07T15:48:12.727Z,28.64
2019-05-07T15:50:44.285Z,28.62
2019-05-07T15:53:21.904Z,28.49
2019-05-07T15:55:53.117Z,28.43
2019-05-07T15:58:24.259Z,28.38
2019-05-07T16:00:55.309Z,28.49
2019-05-07T16:03:34.118Z,28.03
2019-05-07T16:06:05.394Z,27.94
2019-05-07T16:08:44.326Z,27.71
2019-05-07T16:11:15.867Z,27.08
2019-05-07T16:14:07.489Z,27.25
2019-05-07T16:16:40.239Z,27.27
2019-05-07T16:19:13.263Z,27.20
2019-05-07T16:21:44.653Z,26.95
2019-05-07T16:24:16.173Z,26.86
2019-05-07T16:26:47.584Z,26.85
2019-05-07T16:29:18.968Z,27.08
2019-05-07T16:31:52.115Z,27.06
2019-05-07T16:34:24.641Z,27.02
2019-05-07T16:36:55.783Z,27.06
2019-05-07T16:39:27.341Z,26.77
2019-05-07T16:41:58.605Z,26.89
2019-05-07T16:44:29.912Z,26.48
2019-05-07T16:47:02.828Z,26.06
2019-05-07T16:49:34.281Z,26.45
2019-05-07T16:52:05.733Z,26.44
2019-05-07T16:54:37.054Z,26.35
2019-05-07T16:57:16.231Z,26.36
2019-05-07T16:59:47.583Z,26.27
2019-05-07T17:02:23.510Z,26.29
2019-05-07T17:05:08.407Z,26.32
2019-05-07T17:07:47.206Z,26.28
2019-05-07T17:10:18.757Z,26.42
2019-05-07T17:12:52.244Z,26.32
2019-05-07T17:15:22.977Z,26.26
2019-05-07T17:18:00.053Z,26.30
2019-05-07T17:20:32.683Z,26.16
2019-05-07T17:23:06.385Z,26.22
2019-05-07T17:25:37.906Z,26.32
2019-05-07T17:28:09.378Z,26.20
2019-05-07T17:30:42.149Z,25.94
2019-05-07T17:33:13.301Z,25.85
2019-05-07T17:35:47.419Z,25.91
2019-05-07T17:38:20.065Z,26.10
2019-05-07T17:40:52.193Z,26.13
2019-05-07T17:43:23.506Z,26.14
2019-05-07T17:45:54.567Z,26.17
2019-05-07T17:48:25.943Z,26.22
2019-05-07T17:50:58.830Z,26.33
2019-05-07T17:53:32.001Z,26.44
2019-05-07T17:56:03.234Z,26.54
2019-05-07T17:58:34.916Z,26.63
2019-05-07T18:01:06.751Z,26.71
2019-05-07T18:03:42.821Z,26.71
2019-05-07T18:06:13.784Z,26.77
2019-05-07T18:08:45.283Z,26.86
2019-05-07T18:11:21.172Z,26.93
2019-05-07T18:13:51.750Z,26.93
2019-05-07T18:16:27.348Z,26.84
2019-05-07T18:18:58.498Z,26.89
2019-05-07T18:21:29.642Z,26.80
2019-05-07T18:24:13.307Z,26.77
2019-05-07T18:26:35.313Z,26.80
2019-05-07T18:29:06.343Z,26.74
2019-05-07T18:31:51.230Z,26.82
2019-05-07T18:34:22.477Z,26.78
2019-05-07T18:36:53.999Z,26.77
2019-05-07T18:39:25.502Z,26.77
2019-05-07T18:41:57.044Z,26.80
2019-05-07T18:44:28.189Z,26.86
2019-05-07T18:46:59.441Z,26.71
2019-05-07T18:49:30.514Z,26.68
2019-05-07T18:52:02.882Z,26.69
2019-05-07T18:54:34.236Z,26.64
2019-05-07T18:57:05.460Z,26.60
2019-05-07T18:59:37.530Z,26.63
2019-05-07T19:02:09.193Z,26.59
2019-05-07T19:04:42.227Z,26.56
2019-05-07T19:07:13.542Z,26.51
2019-05-07T19:09:47.729Z,26.45
2019-05-07T19:12:17.930Z,26.40
2019-05-07T19:14:51.629Z,26.41
2019-05-07T19:17:25.532Z,26.42
2019-05-07T19:19:55.474Z,26.43
2019-05-07T19:22:27.097Z,26.48
2019-05-07T19:24:58.521Z,26.56
2019-05-07T19:27:30.024Z,26.62
2019-05-07T19:30:01.842Z,26.53
2019-05-07T19:32:33.799Z,26.44
2019-05-07T19:35:05.755Z,26.38
2019-05-07T19:37:37.616Z,26.25
2019-05-07T19:40:09.071Z,26.18
2019-05-07T19:42:42.625Z,26.12
2019-05-07T19:45:13.438Z,26.09
2019-05-07T19:47:44.987Z,25.99
2019-05-07T19:50:16.548Z,26.01
2019-05-07T19:52:47.975Z,25.95
2019-05-07T19:55:21.835Z,25.95
2019-05-07T19:57:54.287Z,25.88
2019-05-07T20:00:26.741Z,25.86
2019-05-07T20:02:59.556Z,25.75
2019-05-07T20:05:32.340Z,25.75
2019-05-07T20:08:04.778Z,25.71
2019-05-07T20:10:38.009Z,25.70
2019-05-07T20:13:09.327Z,25.57
2019-05-07T20:15:43.485Z,25.56
2019-05-07T20:18:14.836Z,25.53
2019-05-07T20:20:47.680Z,25.47
2019-05-07T20:23:19.218Z,25.34
2019-05-07T20:25:52.765Z,25.31
2019-05-07T20:28:24.133Z,25.27
2019-05-07T20:30:56.366Z,25.20
2019-05-07T20:33:28.004Z,25.16
2019-05-07T20:35:59.572Z,25.11
2019-05-07T20:38:32.063Z,25.09
2019-05-07T20:41:03.557Z,25.07
2019-05-07T20:43:35.008Z,25.08
2019-05-07T20:46:07.380Z,25.13
2019-05-07T20:48:38.837Z,25.16
2019-05-07T20:51:12.205Z,25.19
2019-05-07T20:54:02.840Z,25.20
2019-05-07T20:56:38.662Z,25.19
2019-05-07T20:59:12.331Z,25.14
2019-05-07T21:01:42.840Z,25.14
2019-05-07T21:04:14.102Z,25.08
2019-05-07T21:06:45.952Z,25.08
2019-05-07T21:09:17.453Z,25.09
2019-05-07T21:11:48.852Z,25.10
2019-05-07T21:14:20.191Z,25.03
2019-05-07T21:16:52.693Z,25.01
2019-05-07T21:19:23.957Z,24.94
2019-05-07T21:21:55.202Z,24.87
2019-05-07T21:24:26.602Z,24.81
2019-05-07T21:26:58.502Z,24.74
2019-05-07T21:29:29.916Z,24.69
2019-05-07T21:32:03.233Z,24.69
2019-05-07T21:34:34.724Z,24.74
2019-05-07T21:37:08.472Z,24.80
2019-05-07T21:39:38.861Z,24.84
2019-05-07T21:42:13.886Z,24.79
2019-05-07T21:44:43.546Z,24.86
2019-05-07T21:47:14.865Z,24.92
2019-05-07T21:49:46.219Z,25.02
2019-05-07T21:52:17.773Z,25.07
2019-05-07T21:54:52.501Z,25.12
2019-05-07T21:57:41.864Z,25.12
2019-05-07T22:00:15.076Z,25.24
2019-05-07T22:02:48.028Z,25.28
2019-05-07T22:05:19.625Z,25.32
2019-05-07T22:07:54.224Z,25.32
2019-05-07T22:10:23.972Z,25.33
2019-05-07T22:12:55.270Z,25.35
2019-05-07T22:15:26.740Z,25.37
2019-05-07T22:17:58.432Z,25.39
2019-05-07T22:20:31.440Z,25.41
2019-05-07T22:23:02.943Z,25.43
2019-05-07T22:25:34.230Z,25.39
2019-05-07T22:28:06.888Z,25.27
2019-05-07T22:30:46.232Z,25.20
2019-05-07T22:33:19.339Z,25.06
2019-05-07T22:35:52.255Z,25.01
2019-05-07T22:38:43.784Z,25.01
2019-05-07T22:41:16.757Z,24.89
2019-05-07T22:43:48.826Z,24.91
2019-05-07T22:46:22.285Z,25.10
2019-05-07T22:48:53.989Z,25.10
2019-05-07T22:51:25.338Z,25.10
2019-05-07T22:53:57.920Z,25.14
2019-05-07T22:56:46.986Z,25.09
2019-05-07T22:59:18.396Z,25.16
2019-05-07T23:01:51.670Z,25.15
2019-05-07T23:04:23.613Z,25.19
2019-05-07T23:06:54.644Z,25.32
2019-05-07T23:09:25.700Z,25.40
2019-05-07T23:11:57.155Z,25.49
2019-05-07T23:14:28.507Z,25.54
2019-05-07T23:17:02.235Z,25.62
2019-05-07T23:19:33.115Z,25.71
2019-05-07T23:22:04.698Z,25.76
2019-05-07T23:24:36.043Z,25.80
2019-05-07T23:27:07.514Z,25.81
2019-05-07T23:29:38.926Z,25.86
2019-05-07T23:32:12.543Z,25.75
2019-05-07T23:34:43.496Z,25.67
2019-05-07T23:37:14.963Z,25.51
2019-05-07T23:39:48.268Z,25.52
2019-05-07T23:42:21.316Z,25.56
2019-05-07T23:44:52.867Z,25.57
2019-05-07T23:47:24.456Z,25.60
2019-05-07T23:49:56.114Z,25.66
2019-05-07T23:52:27.879Z,25.72
2019-05-07T23:54:59.536Z,25.80
2019-05-07T23:57:32.533Z,25.86
